Luxembourg Funds performance table

help icon
Funds home»domicile»Luxembourg
fund name 1 mth 3 mth 12 mth ytd Inceptionsort icon Net assets Return Date
JB BF Local Emerging-USD C 1% 0% 9% 6% 9% 4295M 2014-08-31
Abs Asia AM Pacific Rim Eq Fd S/A USD -5% 10% -12% 10% 9% 311M 2012-03-31
MLIS York Event Driven UCITS B GBP Acc 2% 2% 23% 8% 9% 601M 2014-08-31
BNPP L1 Equity Best Sel Asia exJap I 0% 4% 11% 2% 9% 287M 2013-04-30
SEB Credit Oppurtunity lll HNWD 0% 0% 7% 3% 9% 1448M 2014-08-31
EIS Insurance Unit Investmt Grd 2020-1 I 0% 2% 9% 7% 9% 74M 2014-08-31
Schroder ISF Emerg Asia I EUR 3% 10% 23% 18% 9% 917M 2014-08-31
Templeton Glbl Total Return X YDis USD 0% 1% 10% 3% 9% 4295M 2014-08-31
Structura New Europe Aggregate I 1% 1% 0% 0% 9% - 2011-12-31
Amundi Fds Bd Euro Government IE-C 1% 4% 14% 11% 9% 288M 2014-08-31
EQUI Private Equity Fund 0% 2% 9% 4% 9% - 2014-06-30
EIS Insurance Unit High Yield 2020-2 I 0% 1% 7% 4% 9% - 2014-08-31
db x-trackers Ethical MSCI World 1C 2% 2% 0% 6% 9% - 2014-08-31
BlueBay Global High Yield Bond I EUR Inc 0% 1% 9% 5% 9% 527M 2014-08-31
Franklin Global Gr & Val I Acc $ 2% 2% 19% 4% 9% 72M 2014-08-31
UBS ETF MSCI UK 100% Hdgd to CHF A acc 1% 0% 9% 3% 9% 203M 2014-08-31
MFS® Investment Global Equity EUR 3% 3% 18% 8% 9% 514M 2014-08-31
Investec GSF Glbl Str Inc S Acc Grs USD 0% 0% 5% 4% 9% 358M 2014-08-31
Uni-Global Equities Europe I1 -2% -1% 13% 6% 9% 1674M 2013-06-30
Ossiam STOXX® Eur600 EqWg NR ETF 1C 1% -1% 18% 5% 9% 112M 2014-08-31
ING (L) Renta Fd EM Dbt HC I USD Acc 0% 1% 14% 9% 9% 2837M 2014-08-31
Carnegie Worldwide Ethical 5B 3% 7% 21% 12% 9% 121M 2014-08-31
Wells Fargo (Lux) WF-Emerg Mkt Eq IA$Acc 3% 6% 11% 4% 9% 481M 2014-08-31
Swisscanto (LU) EF Climate Invest P 1% 1% 0% 5% 9% 72M 2014-06-30
Vitruvius US Equity BI EUR 4% 5% 27% 8% 9% 91M 2014-08-31
JB Multilabel Hybrid Bds C EUR 0% 1% 8% 5% 9% 109M 2014-08-31
Multi-Stra Port Kronos MSP Pure Eq S€Acc 2% 3% 0% 0% 9% 131M 2014-08-31
GS Gr & Em Mkts Debt IO Acc 0% 2% 15% 10% 9% 3253M 2014-08-31
Parvest Opportunities USA P RH EUR C 8% 3% 0% 9% 9% - 2014-06-30
JPM Europe Small Cap C (acc)-EUR -3% 4% 32% 5% 9% 677M 2014-04-30

All our data is licensed from Morningstar UK Ltd. Important legal information